This is the latest recevied weather packets stored in our database for station/object OE9XVI-6. If no packets are shown the sender has not sent any weather packets the latest 10 day(s).
| Time | Temp. | Humidity | Pressure | Rain* | Wind** | Luminosity | Snow |
|---|---|---|---|---|---|---|---|
| 1778012813 | 10° C | 71% | 1010.9 hPa | 0 mm | - | - | - |
| 1778012213 | 10° C | 72% | 1010.9 hPa | 0 mm | - | - | - |
| 1778011613 | 10° C | 73% | 1011.1 hPa | 0 mm | - | - | - |
| 1778011013 | 10° C | 71% | 1010.8 hPa | 0 mm | - | - | - |
| 1778010413 | 10° C | 72% | 1010.7 hPa | 0 mm | - | - | - |
| 1778009813 | 9.44° C | 73% | 1010.6 hPa | 0 mm | - | - | - |
| 1778009213 | 9.44° C | 72% | 1010.5 hPa | 0 mm | - | - | - |
| 1778008613 | 9.44° C | 74% | 1010 hPa | 0 mm | - | - | - |
| 1778008013 | 9.44° C | 75% | 1010 hPa | 0 mm | - | - | - |
| 1778007413 | 10° C | 73% | 1009.5 hPa | 0 mm | - | - | - |
| 1778006813 | 10° C | 72% | 1009.7 hPa | 0 mm | - | - | - |
| 1778006213 | 10.56° C | 72% | 1010 hPa | 0 mm | - | - | - |
| 1778005613 | 10.56° C | 77% | 1010.1 hPa | 0 mm | - | - | - |
| 1778005013 | 11.11° C | 82% | 1010.4 hPa | 0 mm | - | - | - |
| 1778004413 | 11.11° C | 85% | 1010.2 hPa | 0 mm | - | - | - |
| 1778003813 | 11.11° C | 85% | 1010 hPa | 0 mm | - | - | - |
| 1778003213 | 11.67° C | 82% | 1009.8 hPa | 0 mm | - | - | - |
| 1778002613 | 12.22° C | 81% | 1009.8 hPa | 0 mm | - | - | - |
| 1778002013 | 13.33° C | 75% | 1009.7 hPa | 0 mm | - | - | - |
| 1778001413 | 16.11° C | 63% | 1009.4 hPa | 0 mm | - | - | - |
| 1778000813 | 15.56° C | 65% | 1009.4 hPa | 0 mm | - | - | - |
| 1778000213 | 15° C | 68% | 1009.1 hPa | 0 mm | - | - | - |
| 1777999613 | 15° C | 67% | 1009.2 hPa | 0 mm | - | - | - |
| 1777999013 | 16.11° C | 64% | 1009 hPa | 0 mm | - | - | - |
| 1777998413 | 17.22° C | 56% | 1009.1 hPa | 0 mm | - | - | - |
* Rain latest hour (hover to see other rain measurements)
** Current wind speed in m/s (hover to see current wind gust speed)